sensor_id;sensor_type;location;lat;lon;timestamp;temperature;humidity
40538;DHT22;27925;41.874;12.526;2023-04-01T00:01:35;16.10;82.10
40538;DHT22;27925;41.874;12.526;2023-04-01T00:04:01;16.00;81.90
40538;DHT22;27925;41.874;12.526;2023-04-01T00:06:28;16.00;81.70
40538;DHT22;27925;41.874;12.526;2023-04-01T00:08:53;16.00;81.80
40538;DHT22;27925;41.874;12.526;2023-04-01T00:11:19;16.00;81.80
40538;DHT22;27925;41.874;12.526;2023-04-01T00:13:47;16.00;81.80
40538;DHT22;27925;41.874;12.526;2023-04-01T00:16:13;15.90;81.70
40538;DHT22;27925;41.874;12.526;2023-04-01T00:18:39;15.90;81.80
40538;DHT22;27925;41.874;12.526;2023-04-01T00:21:06;15.90;82.00
40538;DHT22;27925;41.874;12.526;2023-04-01T00:23:32;15.80;82.10
40538;DHT22;27925;41.874;12.526;2023-04-01T00:26:00;15.80;82.00
40538;DHT22;27925;41.874;12.526;2023-04-01T00:28:26;15.80;82.10
40538;DHT22;27925;41.874;12.526;2023-04-01T00:30:52;15.80;82.10
40538;DHT22;27925;41.874;12.526;2023-04-01T00:33:18;15.80;82.40
40538;DHT22;27925;41.874;12.526;2023-04-01T00:35:44;15.80;82.40
40538;DHT22;27925;41.874;12.526;2023-04-01T00:38:10;15.70;82.50
40538;DHT22;27925;41.874;12.526;2023-04-01T00:40:45;15.70;82.50
40538;DHT22;27925;41.874;12.526;2023-04-01T00:43:19;15.70;82.60
40538;DHT22;27925;41.874;12.526;2023-04-01T00:45:49;15.70;82.60
40538;DHT22;27925;41.874;12.526;2023-04-01T00:48:19;15.70;82.70
40538;DHT22;27925;41.874;12.526;2023-04-01T00:51:06;15.70;82.90
40538;DHT22;27925;41.874;12.526;2023-04-01T00:53:35;15.80;83.20
40538;DHT22;27925;41.874;12.526;2023-04-01T00:56:11;15.80;83.10
40538;DHT22;27925;41.874;12.526;2023-04-01T00:58:43;15.80;83.30
40538;DHT22;27925;41.874;12.526;2023-04-01T01:01:10;15.80;82.90
40538;DHT22;27925;41.874;12.526;2023-04-01T01:03:36;15.80;83.10
40538;DHT22;27925;41.874;12.526;2023-04-01T01:11:13;15.90;83.90
40538;DHT22;27925;41.874;12.526;2023-04-01T01:13:49;15.90;83.50
40538;DHT22;27925;41.874;12.526;2023-04-01T01:16:18;15.90;83.70
40538;DHT22;27925;41.874;12.526;2023-04-01T01:18:50;15.90;83.60
40538;DHT22;27925;41.874;12.526;2023-04-01T01:27:13;15.90;84.10
40538;DHT22;27925;41.874;12.526;2023-04-01T01:29:58;15.90;84.10
40538;DHT22;27925;41.874;12.526;2023-04-01T01:32:52;15.90;84.10
40538;DHT22;27925;41.874;12.526;2023-04-01T01:38:14;16.00;85.40
40538;DHT22;27925;41.874;12.526;2023-04-01T01:40:43;16.00;85.20
40538;DHT22;27925;41.874;12.526;2023-04-01T01:43:12;16.00;84.70
40538;DHT22;27925;41.874;12.526;2023-04-01T01:45:50;16.00;84.80
40538;DHT22;27925;41.874;12.526;2023-04-01T01:48:18;16.00;85.50
40538;DHT22;27925;41.874;12.526;2023-04-01T01:50:46;16.00;85.40
40538;DHT22;27925;41.874;12.526;2023-04-01T01:53:13;16.00;85.50
40538;DHT22;27925;41.874;12.526;2023-04-01T01:55:47;16.00;85.60
40538;DHT22;27925;41.874;12.526;2023-04-01T01:58:22;16.00;85.80
40538;DHT22;27925;41.874;12.526;2023-04-01T02:01:03;16.00;85.90
40538;DHT22;27925;41.874;12.526;2023-04-01T02:03:34;16.00;86.50
40538;DHT22;27925;41.874;12.526;2023-04-01T02:06:04;16.00;86.10
40538;DHT22;27925;41.874;12.526;2023-04-01T02:08:39;16.00;86.30
40538;DHT22;27925;41.874;12.526;2023-04-01T02:11:10;16.00;86.40
40538;DHT22;27925;41.874;12.526;2023-04-01T02:14:12;16.00;86.50
40538;DHT22;27925;41.874;12.526;2023-04-01T02:16:45;16.00;87.50
40538;DHT22;27925;41.874;12.526;2023-04-01T02:19:15;16.00;86.70
40538;DHT22;27925;41.874;12.526;2023-04-01T02:21:49;16.00;86.90
40538;DHT22;27925;41.874;12.526;2023-04-01T02:24:17;16.00;87.00
40538;DHT22;27925;41.874;12.526;2023-04-01T02:26:47;16.00;87.30
40538;DHT22;27925;41.874;12.526;2023-04-01T02:29:13;15.90;87.60
40538;DHT22;27925;41.874;12.526;2023-04-01T02:31:40;15.90;87.50
40538;DHT22;27925;41.874;12.526;2023-04-01T02:34:07;15.90;87.90
40538;DHT22;27925;41.874;12.526;2023-04-01T02:36:35;15.90;88.20
40538;DHT22;27925;41.874;12.526;2023-04-01T02:39:01;15.80;88.20
40538;DHT22;27925;41.874;12.526;2023-04-01T02:41:30;15.80;88.50
40538;DHT22;27925;41.874;12.526;2023-04-01T02:43:56;15.80;88.70
40538;DHT22;27925;41.874;12.526;2023-04-01T02:46:24;15.80;88.80
40538;DHT22;27925;41.874;12.526;2023-04-01T02:48:50;15.80;88.90
40538;DHT22;27925;41.874;12.526;2023-04-01T02:51:15;15.80;89.00
40538;DHT22;27925;41.874;12.526;2023-04-01T02:53:41;15.80;89.20
40538;DHT22;27925;41.874;12.526;2023-04-01T02:56:07;15.80;89.50
40538;DHT22;27925;41.874;12.526;2023-04-01T02:58:32;15.80;89.70
40538;DHT22;27925;41.874;12.526;2023-04-01T03:00:58;15.70;89.90
40538;DHT22;27925;41.874;12.526;2023-04-01T03:03:24;15.70;90.00
40538;DHT22;27925;41.874;12.526;2023-04-01T03:05:50;15.70;90.10
40538;DHT22;27925;41.874;12.526;2023-04-01T03:08:15;15.70;90.20
40538;DHT22;27925;41.874;12.526;2023-04-01T03:10:41;15.70;90.50
40538;DHT22;27925;41.874;12.526;2023-04-01T03:13:07;15.70;90.70
40538;DHT22;27925;41.874;12.526;2023-04-01T03:15:32;15.60;90.40
40538;DHT22;27925;41.874;12.526;2023-04-01T03:17:58;15.60;90.50
40538;DHT22;27925;41.874;12.526;2023-04-01T03:20:24;15.50;90.50
40538;DHT22;27925;41.874;12.526;2023-04-01T03:22:50;15.50;90.60
40538;DHT22;27925;41.874;12.526;2023-04-01T03:25:15;15.50;90.70
40538;DHT22;27925;41.874;12.526;2023-04-01T03:27:41;15.50;90.80
40538;DHT22;27925;41.874;12.526;2023-04-01T03:30:07;15.50;90.90
40538;DHT22;27925;41.874;12.526;2023-04-01T03:32:33;15.50;90.90
40538;DHT22;27925;41.874;12.526;2023-04-01T03:34:59;15.50;90.90
40538;DHT22;27925;41.874;12.526;2023-04-01T03:37:25;15.40;90.90
40538;DHT22;27925;41.874;12.526;2023-04-01T03:39:51;15.40;91.00
40538;DHT22;27925;41.874;12.526;2023-04-01T03:42:16;15.40;91.00
40538;DHT22;27925;41.874;12.526;2023-04-01T03:44:42;15.30;91.10
40538;DHT22;27925;41.874;12.526;2023-04-01T03:47:08;15.30;91.20
40538;DHT22;27925;41.874;12.526;2023-04-01T03:49:35;15.20;91.30
40538;DHT22;27925;41.874;12.526;2023-04-01T03:52:01;15.20;91.60
40538;DHT22;27925;41.874;12.526;2023-04-01T03:54:26;15.10;91.60
40538;DHT22;27925;41.874;12.526;2023-04-01T03:56:52;15.10;91.70
40538;DHT22;27925;41.874;12.526;2023-04-01T03:59:18;15.10;91.70
40538;DHT22;27925;41.874;12.526;2023-04-01T04:01:43;15.00;91.80
40538;DHT22;27925;41.874;12.526;2023-04-01T04:04:11;15.00;91.90
40538;DHT22;27925;41.874;12.526;2023-04-01T04:06:38;15.00;92.10
40538;DHT22;27925;41.874;12.526;2023-04-01T04:09:04;14.90;92.00
40538;DHT22;27925;41.874;12.526;2023-04-01T04:11:31;15.00;92.20
40538;DHT22;27925;41.874;12.526;2023-04-01T04:13:58;15.00;92.10
40538;DHT22;27925;41.874;12.526;2023-04-01T04:16:24;14.90;92.10
40538;DHT22;27925;41.874;12.526;2023-04-01T04:18:49;14.90;92.20
40538;DHT22;27925;41.874;12.526;2023-04-01T04:21:16;14.90;92.20
40538;DHT22;27925;41.874;12.526;2023-04-01T04:23:42;14.90;92.60
40538;DHT22;27925;41.874;12.526;2023-04-01T04:26:12;14.90;92.40
40538;DHT22;27925;41.874;12.526;2023-04-01T04:28:38;14.90;92.40
40538;DHT22;27925;41.874;12.526;2023-04-01T04:31:04;14.90;92.30
40538;DHT22;27925;41.874;12.526;2023-04-01T04:33:31;14.90;92.40
40538;DHT22;27925;41.874;12.526;2023-04-01T04:35:57;14.90;92.50
40538;DHT22;27925;41.874;12.526;2023-04-01T04:38:24;14.80;92.50
40538;DHT22;27925;41.874;12.526;2023-04-01T04:40:50;14.80;92.40
40538;DHT22;27925;41.874;12.526;2023-04-01T04:43:17;14.80;92.40
40538;DHT22;27925;41.874;12.526;2023-04-01T04:45:43;14.80;92.40
40538;DHT22;27925;41.874;12.526;2023-04-01T04:48:11;14.80;92.40
40538;DHT22;27925;41.874;12.526;2023-04-01T04:50:44;14.80;92.50
40538;DHT22;27925;41.874;12.526;2023-04-01T04:53:11;14.80;92.30
40538;DHT22;27925;41.874;12.526;2023-04-01T04:55:36;14.80;92.60
40538;DHT22;27925;41.874;12.526;2023-04-01T04:58:02;14.80;92.40
40538;DHT22;27925;41.874;12.526;2023-04-01T05:00:28;14.80;92.40
40538;DHT22;27925;41.874;12.526;2023-04-01T05:02:53;14.80;92.50
40538;DHT22;27925;41.874;12.526;2023-04-01T05:05:19;14.80;92.50
40538;DHT22;27925;41.874;12.526;2023-04-01T05:07:45;14.80;92.50
40538;DHT22;27925;41.874;12.526;2023-04-01T05:10:11;14.80;92.50
40538;DHT22;27925;41.874;12.526;2023-04-01T05:12:36;14.80;92.50
40538;DHT22;27925;41.874;12.526;2023-04-01T05:15:07;14.80;92.50
40538;DHT22;27925;41.874;12.526;2023-04-01T05:17:33;14.70;92.50
40538;DHT22;27925;41.874;12.526;2023-04-01T05:19:59;14.70;92.60
40538;DHT22;27925;41.874;12.526;2023-04-01T05:22:25;14.70;92.50
40538;DHT22;27925;41.874;12.526;2023-04-01T05:24:51;14.80;92.60
40538;DHT22;27925;41.874;12.526;2023-04-01T05:27:17;14.80;92.50
40538;DHT22;27925;41.874;12.526;2023-04-01T05:29:43;14.80;92.50
40538;DHT22;27925;41.874;12.526;2023-04-01T05:32:08;14.80;92.40
40538;DHT22;27925;41.874;12.526;2023-04-01T05:34:34;14.80;92.40
40538;DHT22;27925;41.874;12.526;2023-04-01T05:37:00;14.80;92.30
40538;DHT22;27925;41.874;12.526;2023-04-01T05:39:25;14.90;92.30
40538;DHT22;27925;41.874;12.526;2023-04-01T05:41:51;14.90;92.30
40538;DHT22;27925;41.874;12.526;2023-04-01T05:44:17;14.90;92.20
40538;DHT22;27925;41.874;12.526;2023-04-01T05:46:43;15.00;92.20
40538;DHT22;27925;41.874;12.526;2023-04-01T05:49:08;15.00;92.20
40538;DHT22;27925;41.874;12.526;2023-04-01T05:51:34;15.00;92.00
40538;DHT22;27925;41.874;12.526;2023-04-01T05:54:00;15.10;92.00
40538;DHT22;27925;41.874;12.526;2023-04-01T05:56:25;15.10;91.90
40538;DHT22;27925;41.874;12.526;2023-04-01T05:58:53;15.30;91.90
40538;DHT22;27925;41.874;12.526;2023-04-01T06:01:19;15.30;91.70
40538;DHT22;27925;41.874;12.526;2023-04-01T06:03:45;15.50;91.40
40538;DHT22;27925;41.874;12.526;2023-04-01T06:06:25;15.70;91.20
40538;DHT22;27925;41.874;12.526;2023-04-01T06:08:52;15.80;91.00
40538;DHT22;27925;41.874;12.526;2023-04-01T06:19:50;16.40;89.10
40538;DHT22;27925;41.874;12.526;2023-04-01T06:53:29;18.20;82.70
40538;DHT22;27925;41.874;12.526;2023-04-01T06:56:04;18.30;82.10
40538;DHT22;27925;41.874;12.526;2023-04-01T07:01:12;18.50;80.40
40538;DHT22;27925;41.874;12.526;2023-04-01T07:04:00;18.50;79.80
40538;DHT22;27925;41.874;12.526;2023-04-01T07:06:39;18.70;79.60
40538;DHT22;27925;41.874;12.526;2023-04-01T07:09:32;18.80;78.60
40538;DHT22;27925;41.874;12.526;2023-04-01T07:12:10;18.80;77.90
40538;DHT22;27925;41.874;12.526;2023-04-01T07:14:40;18.90;77.30
40538;DHT22;27925;41.874;12.526;2023-04-01T07:17:36;18.90;75.70
40538;DHT22;27925;41.874;12.526;2023-04-01T07:20:28;18.90;74.40
40538;DHT22;27925;41.874;12.526;2023-04-01T07:22:58;18.80;74.60
40538;DHT22;27925;41.874;12.526;2023-04-01T07:25:34;18.70;72.70
40538;DHT22;27925;41.874;12.526;2023-04-01T07:28:20;18.50;71.80
40538;DHT22;27925;41.874;12.526;2023-04-01T07:33:33;18.50;70.40
40538;DHT22;27925;41.874;12.526;2023-04-01T07:36:35;18.60;68.70
40538;DHT22;27925;41.874;12.526;2023-04-01T07:39:29;18.60;67.50
40538;DHT22;27925;41.874;12.526;2023-04-01T07:45:43;18.60;66.00
40538;DHT22;27925;41.874;12.526;2023-04-01T07:56:09;19.00;64.20
40538;DHT22;27925;41.874;12.526;2023-04-01T07:58:53;19.00;61.50
40538;DHT22;27925;41.874;12.526;2023-04-01T08:01:58;19.10;63.90
40538;DHT22;27925;41.874;12.526;2023-04-01T08:07:12;19.00;62.80
40538;DHT22;27925;41.874;12.526;2023-04-01T08:15:06;19.00;61.00
40538;DHT22;27925;41.874;12.526;2023-04-01T08:20:25;18.90;59.90
40538;DHT22;27925;41.874;12.526;2023-04-01T08:23:11;18.90;60.00
40538;DHT22;27925;41.874;12.526;2023-04-01T08:25:42;19.00;59.70
40538;DHT22;27925;41.874;12.526;2023-04-01T08:28:16;18.90;58.60
40538;DHT22;27925;41.874;12.526;2023-04-01T08:30:52;19.00;58.20
40538;DHT22;27925;41.874;12.526;2023-04-01T08:38:36;18.90;58.00
40538;DHT22;27925;41.874;12.526;2023-04-01T08:41:09;18.90;56.60
40538;DHT22;27925;41.874;12.526;2023-04-01T08:46:52;18.70;57.30
40538;DHT22;27925;41.874;12.526;2023-04-01T08:49:41;18.90;57.30
40538;DHT22;27925;41.874;12.526;2023-04-01T08:55:56;19.10;57.80
40538;DHT22;27925;41.874;12.526;2023-04-01T09:04:36;19.50;57.60
40538;DHT22;27925;41.874;12.526;2023-04-01T09:18:04;19.30;57.00
40538;DHT22;27925;41.874;12.526;2023-04-01T09:25:55;19.50;56.90
40538;DHT22;27925;41.874;12.526;2023-04-01T09:36:44;19.50;57.10
40538;DHT22;27925;41.874;12.526;2023-04-01T09:44:37;19.50;57.10
40538;DHT22;27925;41.874;12.526;2023-04-01T09:47:45;19.50;56.40
40538;DHT22;27925;41.874;12.526;2023-04-01T09:55:39;19.50;57.00
40538;DHT22;27925;41.874;12.526;2023-04-01T09:58:33;19.60;56.80
40538;DHT22;27925;41.874;12.526;2023-04-01T10:04:31;19.60;55.60
40538;DHT22;27925;41.874;12.526;2023-04-01T10:15:24;19.70;55.20
40538;DHT22;27925;41.874;12.526;2023-04-01T11:11:14;20.30;54.00
40538;DHT22;27925;41.874;12.526;2023-04-01T11:33:54;21.30;52.90
40538;DHT22;27925;41.874;12.526;2023-04-01T11:45:28;21.30;52.60
40538;DHT22;27925;41.874;12.526;2023-04-01T11:48:12;21.40;51.90
40538;DHT22;27925;41.874;12.526;2023-04-01T11:53:47;21.70;51.20
40538;DHT22;27925;41.874;12.526;2023-04-01T12:07:44;21.80;51.80
40538;DHT22;27925;41.874;12.526;2023-04-01T12:10:21;21.80;50.10
40538;DHT22;27925;41.874;12.526;2023-04-01T12:13:03;21.70;51.90
40538;DHT22;27925;41.874;12.526;2023-04-01T12:19:00;21.40;50.50
40538;DHT22;27925;41.874;12.526;2023-04-01T12:45:32;21.10;51.00
40538;DHT22;27925;41.874;12.526;2023-04-01T12:56:14;21.10;49.60
40538;DHT22;27925;41.874;12.526;2023-04-01T13:09:48;21.20;50.40
40538;DHT22;27925;41.874;12.526;2023-04-01T13:15:25;21.30;49.10
40538;DHT22;27925;41.874;12.526;2023-04-01T13:21:19;21.20;49.80
40538;DHT22;27925;41.874;12.526;2023-04-01T13:23:52;21.20;49.50
40538;DHT22;27925;41.874;12.526;2023-04-01T13:26:50;21.10;51.20
40538;DHT22;27925;41.874;12.526;2023-04-01T13:29:43;21.10;49.80
40538;DHT22;27925;41.874;12.526;2023-04-01T13:46:07;21.40;48.50
40538;DHT22;27925;41.874;12.526;2023-04-01T13:54:11;21.20;47.80
40538;DHT22;27925;41.874;12.526;2023-04-01T14:09:19;21.60;48.30
40538;DHT22;27925;41.874;12.526;2023-04-01T14:19:50;21.30;47.20
40538;DHT22;27925;41.874;12.526;2023-04-01T14:27:50;21.50;47.60
40538;DHT22;27925;41.874;12.526;2023-04-01T14:36:49;21.50;48.00
40538;DHT22;27925;41.874;12.526;2023-04-01T14:47:51;21.70;46.80
40538;DHT22;27925;41.874;12.526;2023-04-01T14:50:25;21.80;47.10
40538;DHT22;27925;41.874;12.526;2023-04-01T14:58:10;21.70;47.70
40538;DHT22;27925;41.874;12.526;2023-04-01T15:05:51;21.50;47.70
40538;DHT22;27925;41.874;12.526;2023-04-01T15:11:21;21.40;48.20
40538;DHT22;27925;41.874;12.526;2023-04-01T15:28:15;21.20;49.20
40538;DHT22;27925;41.874;12.526;2023-04-01T15:36:02;21.10;50.00
40538;DHT22;27925;41.874;12.526;2023-04-01T15:41:42;21.00;49.20
40538;DHT22;27925;41.874;12.526;2023-04-01T15:46:54;20.90;51.10
40538;DHT22;27925;41.874;12.526;2023-04-01T15:49:38;20.70;51.20
40538;DHT22;27925;41.874;12.526;2023-04-01T15:58:48;20.30;50.60
40538;DHT22;27925;41.874;12.526;2023-04-01T16:00:53;20.20;50.70
40538;DHT22;27925;41.874;12.526;2023-04-01T16:03:54;20.30;51.30
40538;DHT22;27925;41.874;12.526;2023-04-01T16:17:05;20.00;50.40
40538;DHT22;27925;41.874;12.526;2023-04-01T16:19:59;19.90;51.80
40538;DHT22;27925;41.874;12.526;2023-04-01T16:22:35;19.90;50.70
40538;DHT22;27925;41.874;12.526;2023-04-01T16:25:43;19.80;50.70
40538;DHT22;27925;41.874;12.526;2023-04-01T16:30:37;19.70;50.30
40538;DHT22;27925;41.874;12.526;2023-04-01T16:38:47;19.50;51.60
40538;DHT22;27925;41.874;12.526;2023-04-01T16:41:19;19.50;51.80
40538;DHT22;27925;41.874;12.526;2023-04-01T16:44:05;19.50;51.70
40538;DHT22;27925;41.874;12.526;2023-04-01T16:46:44;19.40;50.50
40538;DHT22;27925;41.874;12.526;2023-04-01T16:54:19;19.30;51.00
40538;DHT22;27925;41.874;12.526;2023-04-01T16:56:56;19.20;52.20
40538;DHT22;27925;41.874;12.526;2023-04-01T16:59:35;19.20;52.40
40538;DHT22;27925;41.874;12.526;2023-04-01T17:04:48;19.10;52.60
40538;DHT22;27925;41.874;12.526;2023-04-01T17:21:07;18.80;52.80
40538;DHT22;27925;41.874;12.526;2023-04-01T17:23:45;18.70;52.10
40538;DHT22;27925;41.874;12.526;2023-04-01T17:26:36;18.70;53.20
40538;DHT22;27925;41.874;12.526;2023-04-01T17:29:19;18.60;52.30
40538;DHT22;27925;41.874;12.526;2023-04-01T17:32:13;18.50;52.50
40538;DHT22;27925;41.874;12.526;2023-04-01T17:40:52;18.20;52.70
40538;DHT22;27925;41.874;12.526;2023-04-01T17:45:57;18.10;52.80
40538;DHT22;27925;41.874;12.526;2023-04-01T17:48:44;18.00;52.80
40538;DHT22;27925;41.874;12.526;2023-04-01T17:51:35;18.00;53.20
40538;DHT22;27925;41.874;12.526;2023-04-01T18:02:41;17.80;54.30
40538;DHT22;27925;41.874;12.526;2023-04-01T18:08:06;17.70;54.60
40538;DHT22;27925;41.874;12.526;2023-04-01T18:10:48;17.60;54.70
40538;DHT22;27925;41.874;12.526;2023-04-01T18:19:23;17.50;55.10
40538;DHT22;27925;41.874;12.526;2023-04-01T18:24:56;17.40;55.10
40538;DHT22;27925;41.874;12.526;2023-04-01T18:27:24;17.30;55.50
40538;DHT22;27925;41.874;12.526;2023-04-01T18:38:36;17.20;56.30
40538;DHT22;27925;41.874;12.526;2023-04-01T18:43:58;17.10;56.70
40538;DHT22;27925;41.874;12.526;2023-04-01T18:51:55;17.00;57.10
40538;DHT22;27925;41.874;12.526;2023-04-01T18:54:47;17.00;56.70
40538;DHT22;27925;41.874;12.526;2023-04-01T18:57:18;17.00;57.20
40538;DHT22;27925;41.874;12.526;2023-04-01T19:18:53;16.60;60.90
40538;DHT22;27925;41.874;12.526;2023-04-01T19:21:27;16.50;60.50
40538;DHT22;27925;41.874;12.526;2023-04-01T19:26:40;16.40;61.50
40538;DHT22;27925;41.874;12.526;2023-04-01T19:29:29;16.30;63.20
40538;DHT22;27925;41.874;12.526;2023-04-01T19:38:04;16.20;63.90
40538;DHT22;27925;41.874;12.526;2023-04-01T19:46:13;16.00;64.40
40538;DHT22;27925;41.874;12.526;2023-04-01T19:48:53;16.00;64.70
40538;DHT22;27925;41.874;12.526;2023-04-01T19:56:50;16.10;65.50
40538;DHT22;27925;41.874;12.526;2023-04-01T20:08:42;16.00;66.60
40538;DHT22;27925;41.874;12.526;2023-04-01T20:11:14;16.00;66.50
40538;DHT22;27925;41.874;12.526;2023-04-01T20:17:02;15.90;67.50
40538;DHT22;27925;41.874;12.526;2023-04-01T20:22:51;15.70;68.10
40538;DHT22;27925;41.874;12.526;2023-04-01T20:25:40;15.80;68.50
40538;DHT22;27925;41.874;12.526;2023-04-01T20:44:35;15.60;69.50
40538;DHT22;27925;41.874;12.526;2023-04-01T20:47:17;15.50;70.70
40538;DHT22;27925;41.874;12.526;2023-04-01T20:52:45;15.50;70.90
40538;DHT22;27925;41.874;12.526;2023-04-01T20:55:47;15.50;70.10
40538;DHT22;27925;41.874;12.526;2023-04-01T21:02:08;15.50;71.20
40538;DHT22;27925;41.874;12.526;2023-04-01T21:37:10;15.10;74.50
40538;DHT22;27925;41.874;12.526;2023-04-01T21:46:44;15.10;75.00
40538;DHT22;27925;41.874;12.526;2023-04-01T21:54:22;15.10;75.40
40538;DHT22;27925;41.874;12.526;2023-04-01T22:03:16;15.10;76.10
40538;DHT22;27925;41.874;12.526;2023-04-01T22:08:41;15.10;76.10
40538;DHT22;27925;41.874;12.526;2023-04-01T22:14:30;15.00;76.50
40538;DHT22;27925;41.874;12.526;2023-04-01T22:17:25;14.90;76.80
40538;DHT22;27925;41.874;12.526;2023-04-01T22:19:45;14.90;76.90
40538;DHT22;27925;41.874;12.526;2023-04-01T22:22:37;14.90;77.60
40538;DHT22;27925;41.874;12.526;2023-04-01T22:25:08;14.90;77.20
40538;DHT22;27925;41.874;12.526;2023-04-01T22:27:53;14.90;77.40
40538;DHT22;27925;41.874;12.526;2023-04-01T22:30:34;14.90;77.80
40538;DHT22;27925;41.874;12.526;2023-04-01T22:43:51;14.90;78.00
40538;DHT22;27925;41.874;12.526;2023-04-01T22:51:59;14.90;78.10
40538;DHT22;27925;41.874;12.526;2023-04-01T22:54:42;14.80;78.20
40538;DHT22;27925;41.874;12.526;2023-04-01T23:02:30;14.70;78.30
40538;DHT22;27925;41.874;12.526;2023-04-01T23:04:59;14.70;78.60
40538;DHT22;27925;41.874;12.526;2023-04-01T23:07:44;14.70;78.70
40538;DHT22;27925;41.874;12.526;2023-04-01T23:10:46;14.60;78.60
40538;DHT22;27925;41.874;12.526;2023-04-01T23:13:26;14.60;78.80
40538;DHT22;27925;41.874;12.526;2023-04-01T23:15:54;14.60;78.50
40538;DHT22;27925;41.874;12.526;2023-04-01T23:21:35;14.50;78.90
40538;DHT22;27925;41.874;12.526;2023-04-01T23:24:27;14.50;78.90
40538;DHT22;27925;41.874;12.526;2023-04-01T23:29:45;14.40;78.80
40538;DHT22;27925;41.874;12.526;2023-04-01T23:32:16;14.40;78.60
40538;DHT22;27925;41.874;12.526;2023-04-01T23:34:48;14.40;78.50
40538;DHT22;27925;41.874;12.526;2023-04-01T23:37:15;14.40;78.80
40538;DHT22;27925;41.874;12.526;2023-04-01T23:39:56;14.30;78.90
40538;DHT22;27925;41.874;12.526;2023-04-01T23:42:30;14.30;79.20
40538;DHT22;27925;41.874;12.526;2023-04-01T23:45:14;14.20;79.10
40538;DHT22;27925;41.874;12.526;2023-04-01T23:47:43;14.20;79.10
40538;DHT22;27925;41.874;12.526;2023-04-01T23:50:14;14.20;79.20
40538;DHT22;27925;41.874;12.526;2023-04-01T23:52:52;14.20;79.20
40538;DHT22;27925;41.874;12.526;2023-04-01T23:55:23;14.20;79.40
